createdAt,value
2022-08-12T00:02:04.157Z,76.70
2022-08-12T00:04:52.433Z,76.60
2022-08-12T00:07:38.217Z,76.50
2022-08-12T00:10:24.249Z,76.50
2022-08-12T00:13:10.369Z,76.50
2022-08-12T00:16:00.656Z,76.50
2022-08-12T00:18:46.177Z,76.50
2022-08-12T00:21:32.152Z,76.70
2022-08-12T00:24:22.457Z,76.80
2022-08-12T00:27:08.286Z,77.20
2022-08-12T00:29:54.586Z,78.20
2022-08-12T00:32:46.464Z,77.50
2022-08-12T00:35:40.849Z,78.20
2022-08-12T00:38:26.930Z,79.00
2022-08-12T00:41:13.013Z,79.70
2022-08-12T00:43:44.929Z,80.30
2022-08-12T00:46:30.491Z,80.90
2022-08-12T00:49:01.598Z,81.40
2022-08-12T00:51:51.612Z,81.80
2022-08-12T00:54:21.243Z,81.90
2022-08-12T00:56:50.909Z,82.00
2022-08-12T00:59:18.963Z,81.90
2022-08-12T01:02:02.284Z,82.00
2022-08-12T01:04:57.592Z,82.40
2022-08-12T01:07:44.990Z,83.20
2022-08-12T01:10:32.909Z,83.90
2022-08-12T01:13:19.109Z,84.70
2022-08-12T01:15:50.389Z,84.90
2022-08-12T01:18:21.738Z,85.30
2022-08-12T01:21:00.705Z,86.00
2022-08-12T01:23:43.415Z,86.50
2022-08-12T01:26:17.979Z,87.10
2022-08-12T01:28:48.325Z,87.50
2022-08-12T01:31:19.816Z,87.70
2022-08-12T01:33:59.597Z,87.80
2022-08-12T01:36:28.730Z,88.40
2022-08-12T01:38:58.980Z,88.20
2022-08-12T01:41:31.074Z,87.70
2022-08-12T01:44:02.181Z,87.50
2022-08-12T01:46:44.938Z,88.00
2022-08-12T01:49:36.841Z,89.40
2022-08-12T01:52:22.740Z,89.30
2022-08-12T01:54:52.258Z,89.70
2022-08-12T01:57:59.734Z,90.00
2022-08-12T02:00:19.832Z,90.10
2022-08-12T02:02:54.173Z,90.20
2022-08-12T02:05:51.984Z,90.30
2022-08-12T02:08:52.314Z,90.30
2022-08-12T02:11:25.375Z,90.30
2022-08-12T02:14:11.244Z,90.30
2022-08-12T02:16:58.558Z,90.50
2022-08-12T02:19:43.376Z,90.60
2022-08-12T02:22:27.426Z,90.80
2022-08-12T02:25:04.448Z,91.00
2022-08-12T02:27:36.448Z,91.00
2022-08-12T02:30:08.778Z,91.20
2022-08-12T02:32:42.088Z,91.20
2022-08-12T02:35:14.598Z,91.40
2022-08-12T02:37:45.349Z,91.60
2022-08-12T02:40:15.817Z,91.90
2022-08-12T02:42:51.945Z,92.10
2022-08-12T02:45:26.521Z,92.30
2022-08-12T02:48:01.155Z,92.60
2022-08-12T02:51:09.189Z,92.70
2022-08-12T02:53:39.293Z,92.60
2022-08-12T02:56:08.294Z,92.40
2022-08-12T02:58:41.169Z,92.30
2022-08-12T03:01:10.917Z,92.30
2022-08-12T03:03:40.976Z,92.30
2022-08-12T03:06:10.424Z,92.10
2022-08-12T03:08:42.147Z,92.10
2022-08-12T03:11:16.125Z,92.50
2022-08-12T03:13:48.781Z,92.80
2022-08-12T03:16:19.389Z,93.10
2022-08-12T03:18:47.450Z,93.30
2022-08-12T03:21:58.035Z,93.40
2022-08-12T03:24:09.096Z,93.60
2022-08-12T03:26:38.119Z,93.80
2022-08-12T03:29:06.919Z,94.10
2022-08-12T03:31:36.340Z,93.80
2022-08-12T03:38:15.987Z,93.60
2022-08-12T03:41:15.709Z,93.30
2022-08-12T03:44:08.916Z,93.20
2022-08-12T03:47:00.722Z,93.20
2022-08-12T03:49:45.951Z,93.10
2022-08-12T03:52:31.493Z,93.10
2022-08-12T03:55:16.849Z,93.00
2022-08-12T03:58:02.346Z,92.90
2022-08-12T04:00:31.066Z,92.90
2022-08-12T04:03:01.338Z,93.10
2022-08-12T04:05:54.449Z,93.20
2022-08-12T04:08:19.148Z,93.50
2022-08-12T04:11:04.419Z,93.70
2022-08-12T04:13:32.245Z,94.00
2022-08-12T04:16:02.090Z,94.40
2022-08-12T04:18:32.693Z,94.60
2022-08-12T04:21:02.545Z,94.90
2022-08-12T04:23:33.628Z,94.70
2022-08-12T04:26:01.455Z,94.80
2022-08-12T04:28:29.738Z,94.80
2022-08-12T04:30:58.000Z,95.00
2022-08-12T04:33:26.920Z,95.10
2022-08-12T04:35:57.204Z,95.20
2022-08-12T04:38:26.674Z,95.50
2022-08-12T04:40:55.910Z,95.30
2022-08-12T04:44:01.630Z,95.30
2022-08-12T04:46:13.580Z,95.20
2022-08-12T04:48:41.528Z,95.10
2022-08-12T04:51:11.017Z,95.00
2022-08-12T04:53:39.013Z,95.20
2022-08-12T04:56:07.237Z,94.90
2022-08-12T04:58:36.202Z,94.80
2022-08-12T05:01:04.336Z,94.70
2022-08-12T05:03:46.327Z,94.70
2022-08-12T05:06:18.940Z,94.60
2022-08-12T05:08:56.238Z,94.60
2022-08-12T05:11:24.948Z,94.50
2022-08-12T05:13:59.486Z,94.60
2022-08-12T05:16:30.917Z,94.40
2022-08-12T05:18:59.489Z,94.20
2022-08-12T05:21:28.706Z,94.00
2022-08-12T05:23:56.699Z,94.00
2022-08-12T05:26:24.928Z,94.00
2022-08-12T05:28:53.961Z,93.80
2022-08-12T05:31:45.565Z,93.50
2022-08-12T05:34:10.177Z,93.50
2022-08-12T05:36:40.356Z,92.90
2022-08-12T05:39:08.163Z,92.70
2022-08-12T05:41:37.801Z,92.40
2022-08-12T05:44:07.613Z,92.20
2022-08-12T05:46:37.528Z,92.00
2022-08-12T05:49:06.634Z,91.80
2022-08-12T05:51:39.699Z,91.70
2022-08-12T05:54:11.032Z,91.60
2022-08-12T05:56:40.009Z,91.60
2022-08-12T05:59:10.938Z,91.50
2022-08-12T06:02:11.538Z,91.30
2022-08-12T06:04:28.192Z,91.10
2022-08-12T06:06:56.009Z,91.20
2022-08-12T06:09:26.302Z,90.80
2022-08-12T06:12:05.998Z,90.50
2022-08-12T06:14:36.754Z,90.40
2022-08-12T06:17:07.422Z,90.40
2022-08-12T06:20:28.418Z,90.30
2022-08-12T06:22:23.643Z,90.10
2022-08-12T06:24:53.809Z,89.60
2022-08-12T06:27:21.882Z,89.20
2022-08-12T06:30:09.625Z,88.80
2022-08-12T06:32:47.482Z,88.10
2022-08-12T06:35:25.936Z,87.60
2022-08-12T06:38:16.893Z,87.00
2022-08-12T06:41:05.064Z,86.20
2022-08-12T06:44:06.597Z,85.50
2022-08-12T06:46:22.636Z,84.80
2022-08-12T06:48:55.002Z,84.50
2022-08-12T06:51:22.860Z,83.70
2022-08-12T06:53:50.770Z,83.10
2022-08-12T06:56:20.469Z,82.50
2022-08-12T06:58:48.349Z,82.10
2022-08-12T07:01:17.466Z,81.80
2022-08-12T07:03:45.672Z,80.70
2022-08-12T07:06:13.518Z,80.50
2022-08-12T07:08:43.481Z,79.90
2022-08-12T07:11:13.244Z,79.50
2022-08-12T07:14:02.326Z,78.70
2022-08-12T07:16:48.755Z,78.10
2022-08-12T07:19:16.909Z,77.80
2022-08-12T07:22:00.403Z,77.50
2022-08-12T07:24:35.805Z,77.30
2022-08-12T07:27:03.648Z,76.70
2022-08-12T07:30:03.436Z,76.30
2022-08-12T07:32:23.569Z,75.50
2022-08-12T07:34:51.437Z,75.10
2022-08-12T07:37:19.249Z,74.40
2022-08-12T07:39:58.709Z,73.50
2022-08-12T07:42:28.448Z,73.80
2022-08-12T07:44:57.708Z,72.70
2022-08-12T07:47:27.404Z,73.20
2022-08-12T07:50:05.585Z,73.40
2022-08-12T07:52:35.269Z,73.00
2022-08-12T07:55:04.210Z,72.20
2022-08-12T07:57:33.439Z,71.20
2022-08-12T08:00:05.610Z,71.30
2022-08-12T08:02:36.128Z,71.20
2022-08-12T08:05:04.288Z,70.90
2022-08-12T08:07:32.239Z,70.70
2022-08-12T08:10:02.416Z,70.50
2022-08-12T08:12:49.157Z,70.30
2022-08-12T08:15:20.090Z,70.30
2022-08-12T08:17:57.624Z,69.80
2022-08-12T08:20:28.629Z,69.20
2022-08-12T08:23:05.561Z,69.10
2022-08-12T08:25:37.163Z,69.10
2022-08-12T08:28:08.896Z,68.80
2022-08-12T08:30:39.832Z,69.00
2022-08-12T08:33:24.813Z,68.80
2022-08-12T08:35:58.641Z,68.10
2022-08-12T08:38:31.945Z,67.30
2022-08-12T08:42:19.266Z,66.70
2022-08-12T08:44:06.764Z,66.30
2022-08-12T08:46:37.739Z,65.10
2022-08-12T08:49:06.505Z,65.00
2022-08-12T08:51:35.157Z,64.60
2022-08-12T08:54:03.222Z,63.90
2022-08-12T08:56:31.165Z,63.90
2022-08-12T08:58:59.209Z,63.40
2022-08-12T09:01:37.348Z,63.00
2022-08-12T09:05:09.842Z,62.90
2022-08-12T09:07:00.593Z,63.00
2022-08-12T09:10:02.781Z,62.50
2022-08-12T09:12:55.067Z,61.10
2022-08-12T09:18:12.669Z,60.70
2022-08-12T09:20:43.921Z,61.00
2022-08-12T09:28:57.534Z,59.30
2022-08-12T09:32:04.012Z,59.00
2022-08-12T09:34:27.608Z,57.90
2022-08-12T09:37:19.463Z,57.50
2022-08-12T09:40:01.643Z,57.80
2022-08-12T09:43:16.713Z,57.30
2022-08-12T09:46:06.220Z,57.40
2022-08-12T09:48:34.910Z,56.90
2022-08-12T09:51:10.675Z,56.60
2022-08-12T09:53:40.743Z,56.70
2022-08-12T09:56:59.022Z,56.40
2022-08-12T09:59:02.317Z,56.40
2022-08-12T10:01:35.750Z,55.70
2022-08-12T10:04:20.580Z,55.10
2022-08-12T10:06:55.631Z,55.20
2022-08-12T10:09:56.907Z,55.40
2022-08-12T10:12:33.274Z,55.30
2022-08-12T10:15:01.586Z,55.30
2022-08-12T10:17:29.697Z,55.20
2022-08-12T10:19:59.811Z,55.30
2022-08-12T10:22:49.101Z,55.20
2022-08-12T10:26:35.516Z,54.20
2022-08-12T10:28:41.752Z,54.60
2022-08-12T10:31:29.528Z,54.40
2022-08-12T10:34:26.001Z,54.80
2022-08-12T10:36:58.641Z,54.60
2022-08-12T10:40:01.176Z,55.00
2022-08-12T10:42:45.312Z,55.60
2022-08-12T10:45:18.182Z,55.90
2022-08-12T10:48:07.815Z,56.10
2022-08-12T10:51:01.484Z,57.00
2022-08-12T10:53:45.989Z,55.90
2022-08-12T10:56:16.997Z,55.30
2022-08-12T10:58:47.001Z,55.10
2022-08-12T11:01:49.638Z,54.60
2022-08-12T11:04:22.845Z,54.60
2022-08-12T11:07:06.906Z,55.10
2022-08-12T11:09:59.939Z,55.60
2022-08-12T11:12:55.111Z,56.10
2022-08-12T11:15:24.428Z,56.00
2022-08-12T11:18:12.036Z,55.00
2022-08-12T11:20:47.377Z,54.70
2022-08-12T11:23:25.514Z,54.30
2022-08-12T11:26:05.975Z,53.60
2022-08-12T11:28:37.668Z,52.90
2022-08-12T11:31:09.810Z,53.00
2022-08-12T11:34:05.100Z,53.00
2022-08-12T11:36:28.564Z,53.10
2022-08-12T11:38:57.765Z,51.80
2022-08-12T11:41:31.738Z,51.20
2022-08-12T11:44:35.187Z,49.90
2022-08-12T11:46:53.180Z,49.60
2022-08-12T11:49:31.081Z,49.90
2022-08-12T11:52:02.600Z,49.90
2022-08-12T11:54:31.376Z,50.00
2022-08-12T11:57:02.492Z,49.90
2022-08-12T12:02:21.501Z,49.80
2022-08-12T12:04:52.683Z,50.00
2022-08-12T12:08:36.377Z,49.90
2022-08-12T12:10:11.450Z,49.90
2022-08-12T12:12:41.483Z,48.90
2022-08-12T12:15:24.719Z,48.50
2022-08-12T12:17:55.627Z,49.20
2022-08-12T12:20:25.899Z,49.90
2022-08-12T12:22:55.641Z,49.60
2022-08-12T12:26:06.628Z,49.70
2022-08-12T12:28:37.439Z,49.30
2022-08-12T12:31:01.803Z,49.70
2022-08-12T12:33:46.204Z,49.70
2022-08-12T12:36:23.136Z,49.80
2022-08-12T12:38:53.093Z,50.50
2022-08-12T12:41:20.920Z,50.50
2022-08-12T12:44:03.998Z,50.40
2022-08-12T12:46:33.745Z,50.10
2022-08-12T12:49:01.550Z,50.60
2022-08-12T12:52:06.797Z,50.40
2022-08-12T12:54:28.946Z,50.60
2022-08-12T12:56:57.009Z,50.70
2022-08-12T12:59:56.435Z,50.50
2022-08-12T13:02:32.026Z,50.10
2022-08-12T13:05:01.020Z,49.50
2022-08-12T13:07:49.279Z,49.70
2022-08-12T13:10:18.200Z,49.80
2022-08-12T13:12:47.356Z,49.50
2022-08-12T13:15:43.527Z,48.80
2022-08-12T13:18:07.264Z,49.10
2022-08-12T13:20:38.445Z,49.60
2022-08-12T13:23:36.734Z,49.60
2022-08-12T13:25:59.028Z,49.80
2022-08-12T13:28:29.265Z,49.70
2022-08-12T13:30:58.390Z,49.80
2022-08-12T13:33:28.749Z,49.50
2022-08-12T13:36:05.622Z,49.10
2022-08-12T13:38:36.034Z,49.50
2022-08-12T13:41:11.104Z,50.50
2022-08-12T13:43:41.303Z,49.50
2022-08-12T13:46:12.199Z,50.00
2022-08-12T13:48:44.749Z,50.20
2022-08-12T13:51:13.232Z,50.70
2022-08-12T13:53:59.261Z,50.90
2022-08-12T13:56:34.727Z,51.50
2022-08-12T13:59:05.563Z,50.60
2022-08-12T14:01:40.467Z,50.40
2022-08-12T14:04:11.900Z,50.90
2022-08-12T14:06:40.059Z,51.10
2022-08-12T14:09:15.549Z,51.40
2022-08-12T14:11:58.518Z,51.60
2022-08-12T14:14:28.077Z,52.60
2022-08-12T14:17:02.327Z,52.10
2022-08-12T14:19:35.815Z,52.30
2022-08-12T14:22:06.645Z,52.50
2022-08-12T14:24:40.423Z,52.00
2022-08-12T14:27:10.632Z,51.30
2022-08-12T14:30:04.967Z,51.10
2022-08-12T14:32:34.980Z,51.00
2022-08-12T14:35:08.990Z,51.40
2022-08-12T14:37:56.196Z,51.60
2022-08-12T14:40:27.850Z,51.80
2022-08-12T14:42:57.316Z,51.70
2022-08-12T14:45:45.482Z,51.70
2022-08-12T14:48:15.144Z,51.60
2022-08-12T14:51:09.463Z,51.30
2022-08-12T14:59:57.180Z,51.40
2022-08-12T15:02:20.476Z,51.50
2022-08-12T15:04:59.337Z,50.30
2022-08-12T15:07:34.396Z,49.90
2022-08-12T15:10:31.150Z,50.50
2022-08-12T15:13:06.797Z,50.60
2022-08-12T15:15:38.480Z,51.20
2022-08-12T15:18:13.919Z,51.60
2022-08-12T15:20:42.329Z,52.10
2022-08-12T15:23:17.631Z,52.70
2022-08-12T15:25:49.312Z,53.30
2022-08-12T15:28:29.562Z,53.60
2022-08-12T15:31:00.727Z,54.20
2022-08-12T15:33:44.689Z,54.20
2022-08-12T15:36:14.745Z,54.10
2022-08-12T15:38:48.881Z,53.50
2022-08-12T15:41:22.065Z,53.10
2022-08-12T15:44:36.536Z,53.00
2022-08-12T15:46:39.001Z,53.10
2022-08-12T15:49:16.977Z,53.70
2022-08-12T15:51:58.269Z,54.70
2022-08-12T15:54:37.293Z,54.40
2022-08-12T15:57:17.176Z,55.20
2022-08-12T16:00:00.215Z,56.30
2022-08-12T16:02:41.525Z,56.70
2022-08-12T16:06:11.121Z,57.00
2022-08-12T16:08:13.254Z,57.20
2022-08-12T16:10:46.829Z,57.20
2022-08-12T16:13:18.050Z,56.80
2022-08-12T16:16:02.837Z,56.50
2022-08-12T16:18:33.303Z,56.10
2022-08-12T16:21:01.845Z,55.40
2022-08-12T16:23:52.266Z,55.20
2022-08-12T16:26:27.300Z,55.30
2022-08-12T16:29:14.639Z,55.40
2022-08-12T16:31:44.315Z,55.50
2022-08-12T16:34:25.720Z,55.50
2022-08-12T16:37:04.693Z,55.50
2022-08-12T16:39:59.951Z,55.70
2022-08-12T16:42:28.026Z,55.90
2022-08-12T16:44:57.074Z,55.70
2022-08-12T16:47:27.297Z,55.70
2022-08-12T16:49:57.566Z,55.80
2022-08-12T16:52:25.389Z,55.80
2022-08-12T16:54:53.970Z,56.00
2022-08-12T16:57:43.004Z,55.90
2022-08-12T17:00:16.948Z,56.10
2022-08-12T17:02:50.613Z,56.20
2022-08-12T17:05:30.909Z,56.40
2022-08-12T17:08:00.921Z,56.30
2022-08-12T17:10:36.614Z,56.00
2022-08-12T17:13:09.527Z,55.90
2022-08-12T17:15:56.912Z,56.10
2022-08-12T17:18:44.009Z,56.30
2022-08-12T17:21:19.887Z,56.30
2022-08-12T17:23:53.813Z,56.50
2022-08-12T17:26:22.791Z,56.60
2022-08-12T17:28:59.052Z,56.70
2022-08-12T17:32:00.612Z,56.80
2022-08-12T17:34:38.456Z,57.10
2022-08-12T17:37:07.153Z,57.30
2022-08-12T17:40:07.512Z,57.40
2022-08-12T17:42:34.549Z,57.60
2022-08-12T17:45:18.245Z,57.70
2022-08-12T17:48:04.922Z,57.90
2022-08-12T17:50:35.705Z,58.00
2022-08-12T17:53:03.930Z,58.20
2022-08-12T17:55:40.668Z,58.30
2022-08-12T17:58:13.737Z,58.40
2022-08-12T18:00:45.302Z,58.50
2022-08-12T18:04:04.741Z,58.60
2022-08-12T18:06:14.101Z,58.50
2022-08-12T18:08:54.407Z,58.80
2022-08-12T18:12:04.009Z,58.20
2022-08-12T18:14:30.936Z,58.50
2022-08-12T18:17:02.568Z,58.70
2022-08-12T18:20:04.091Z,59.30
2022-08-12T18:22:21.873Z,59.70
2022-08-12T18:25:00.743Z,60.10
2022-08-12T18:27:44.090Z,60.50
2022-08-12T18:30:20.292Z,60.90
2022-08-12T18:33:03.492Z,61.00
2022-08-12T18:35:46.891Z,61.40
2022-08-12T18:38:21.752Z,61.70
2022-08-12T18:41:09.506Z,62.00
2022-08-12T18:43:57.421Z,62.30
2022-08-12T18:46:34.738Z,62.60
2022-08-12T18:49:18.364Z,62.80
2022-08-12T18:51:55.266Z,63.10
2022-08-12T18:54:32.364Z,63.40
2022-08-12T18:57:03.747Z,63.50
2022-08-12T19:00:00.902Z,64.00
2022-08-12T19:02:25.150Z,64.20
2022-08-12T19:04:54.928Z,64.60
2022-08-12T19:07:29.891Z,64.90
2022-08-12T19:10:14.027Z,65.20
2022-08-12T19:13:00.626Z,65.50
2022-08-12T19:15:30.028Z,65.70
2022-08-12T19:18:02.579Z,66.10
2022-08-12T19:20:32.762Z,66.30
2022-08-12T19:23:07.154Z,66.70
2022-08-12T19:26:01.434Z,66.80
2022-08-12T19:28:29.865Z,67.00
2022-08-12T19:31:56.927Z,67.50
2022-08-12T19:37:20.239Z,68.10
2022-08-12T19:40:09.344Z,68.00
2022-08-12T19:42:42.703Z,68.00
2022-08-12T19:45:13.862Z,68.10
2022-08-12T19:47:44.602Z,68.10
2022-08-12T19:50:13.550Z,68.20
2022-08-12T19:52:53.067Z,68.70
2022-08-12T19:55:23.209Z,69.50
2022-08-12T19:58:02.880Z,69.80
2022-08-12T20:00:34.996Z,69.80
2022-08-12T20:03:05.193Z,70.20
2022-08-12T20:06:05.252Z,70.60
2022-08-12T20:08:33.282Z,70.90
2022-08-12T20:12:13.147Z,71.50
2022-08-12T20:14:00.599Z,71.90
2022-08-12T20:17:01.680Z,72.30
2022-08-12T20:19:53.295Z,72.40
2022-08-12T20:22:23.948Z,72.60
2022-08-12T20:25:01.683Z,72.80
2022-08-12T20:28:04.826Z,73.40
2022-08-12T20:30:37.462Z,73.90
2022-08-12T20:33:17.758Z,74.70
2022-08-12T20:36:13.594Z,75.50
2022-08-12T20:38:38.126Z,76.00
2022-08-12T20:41:16.467Z,76.20
2022-08-12T20:43:49.177Z,76.30
2022-08-12T20:46:17.560Z,76.20
2022-08-12T20:48:47.023Z,76.30
2022-08-12T20:51:23.232Z,76.50
2022-08-12T20:53:57.646Z,77.10
2022-08-12T20:56:32.762Z,77.30
2022-08-12T20:59:02.646Z,78.60
2022-08-12T21:01:45.997Z,77.90
2022-08-12T21:04:34.464Z,78.10
2022-08-12T21:07:08.467Z,78.40
2022-08-12T21:09:41.466Z,78.90
2022-08-12T21:12:27.503Z,79.20
2022-08-12T21:15:23.539Z,79.40
2022-08-12T21:18:00.912Z,79.80
2022-08-12T21:20:36.894Z,80.10
2022-08-12T21:23:05.974Z,80.50
2022-08-12T21:25:36.181Z,80.80
2022-08-12T21:28:14.621Z,80.90
2022-08-12T21:31:11.505Z,81.20
2022-08-12T21:33:32.072Z,81.40
2022-08-12T21:36:22.739Z,81.80
2022-08-12T21:39:01.740Z,82.40
2022-08-12T21:41:51.175Z,82.70
2022-08-12T21:44:32.448Z,83.10
2022-08-12T21:47:18.937Z,83.00
2022-08-12T21:50:02.232Z,83.00
2022-08-12T21:52:34.459Z,83.20
2022-08-12T21:55:05.289Z,83.40
2022-08-12T21:57:51.425Z,83.60
2022-08-12T22:00:32.934Z,83.90
2022-08-12T22:04:01.814Z,84.30
2022-08-12T22:06:30.764Z,84.70
2022-08-12T22:09:17.061Z,85.60
2022-08-12T22:11:49.234Z,86.00
2022-08-12T22:14:25.236Z,86.30
2022-08-12T22:16:56.050Z,86.50
2022-08-12T22:19:25.084Z,87.00
2022-08-12T22:21:56.227Z,87.20
2022-08-12T22:24:29.880Z,87.40
2022-08-12T22:26:59.401Z,87.40
2022-08-12T22:29:53.827Z,87.20
2022-08-12T22:32:26.284Z,87.10
2022-08-12T22:35:12.712Z,87.40
2022-08-12T22:37:53.614Z,88.00
2022-08-12T22:40:24.113Z,88.80
2022-08-12T22:43:15.239Z,89.50
2022-08-12T22:46:01.039Z,90.10
2022-08-12T22:48:30.892Z,90.40
2022-08-12T22:50:59.387Z,90.50
2022-08-12T22:53:36.367Z,90.40
2022-08-12T22:56:07.095Z,90.30
2022-08-12T22:58:41.390Z,90.20
2022-08-12T23:01:21.104Z,90.30
2022-08-12T23:03:53.963Z,90.40
2022-08-12T23:06:24.142Z,90.50
2022-08-12T23:08:52.309Z,90.70
2022-08-12T23:11:23.963Z,90.80
2022-08-12T23:13:56.780Z,91.00
2022-08-12T23:16:31.117Z,91.10
2022-08-12T23:19:10.666Z,91.20
2022-08-12T23:22:03.932Z,91.30
2022-08-12T23:24:41.191Z,91.40
2022-08-12T23:27:50.403Z,91.40
2022-08-12T23:30:24.715Z,91.40
2022-08-12T23:33:00.045Z,91.50
2022-08-12T23:35:45.815Z,91.60
2022-08-12T23:38:31.431Z,92.10
2022-08-12T23:41:01.599Z,91.90
2022-08-12T23:43:40.071Z,92.10
2022-08-12T23:46:10.209Z,92.20
2022-08-12T23:48:38.939Z,92.40
2022-08-12T23:51:23.668Z,92.60
2022-08-12T23:53:59.762Z,92.80
2022-08-12T23:56:29.095Z,92.70
2022-08-12T23:58:56.917Z,92.90
